createdAt,value
2022-09-25T00:01:50.377Z,99969.16
2022-09-25T00:06:54.360Z,99966.03
2022-09-25T00:11:56.957Z,99968.00
2022-09-25T00:16:59.816Z,99969.13
2022-09-25T00:22:03.975Z,99967.97
2022-09-25T00:27:08.475Z,99979.72
2022-09-25T00:32:12.048Z,99968.94
2022-09-25T00:37:16.236Z,99965.81
2022-09-25T00:42:20.289Z,99966.09
2022-09-25T00:47:28.630Z,99958.47
2022-09-25T00:52:32.615Z,99964.69
2022-09-25T00:57:36.125Z,99971.59
2022-09-25T01:02:40.154Z,99960.00
2022-09-25T01:07:45.158Z,99959.00
2022-09-25T01:12:48.768Z,99956.00
2022-09-25T01:17:57.387Z,99965.91
2022-09-25T01:23:07.795Z,99954.13
2022-09-25T01:28:19.277Z,99956.41
2022-09-25T01:33:24.986Z,99966.53
2022-09-25T01:38:31.199Z,99957.91
2022-09-25T01:43:36.396Z,99950.81
2022-09-25T01:48:40.835Z,99953.66
2022-09-25T01:53:47.915Z,99952.06
2022-09-25T01:58:52.327Z,99955.75
2022-09-25T02:03:57.965Z,99949.66
2022-09-25T02:09:02.013Z,99948.97
2022-09-25T02:14:07.504Z,99944.97
2022-09-25T02:19:28.865Z,99947.66
2022-09-25T02:24:35.215Z,99946.09
2022-09-25T02:29:38.886Z,99940.53
2022-09-25T02:34:43.161Z,99949.59
2022-09-25T02:39:47.287Z,99962.31
2022-09-25T02:45:02.620Z,99953.78
2022-09-25T02:50:12.308Z,99960.88
2022-09-25T02:55:18.374Z,99952.94
2022-09-25T03:00:22.920Z,99952.09
2022-09-25T03:05:26.839Z,99947.56
2022-09-25T03:10:29.450Z,99948.84
2022-09-25T03:15:32.232Z,99943.84
2022-09-25T03:20:36.212Z,99954.88
2022-09-25T03:25:39.018Z,99964.78
2022-09-25T03:30:41.969Z,99962.38
2022-09-25T03:35:45.943Z,99960.19
2022-09-25T03:40:48.590Z,99961.03
2022-09-25T03:45:51.501Z,99954.25
2022-09-25T03:50:56.228Z,99956.78
2022-09-25T03:55:58.897Z,99955.81
2022-09-25T04:01:01.660Z,99956.78
2022-09-25T04:06:06.102Z,99950.81
2022-09-25T04:11:08.689Z,99945.59
2022-09-25T04:16:11.700Z,99958.56
2022-09-25T04:21:16.228Z,99963.22
2022-09-25T04:26:18.885Z,99957.13
2022-09-25T04:31:21.648Z,99960.78
2022-09-25T04:36:25.802Z,99956.41
2022-09-25T04:41:28.383Z,99960.09
2022-09-25T04:46:31.142Z,99964.72
2022-09-25T04:51:35.171Z,99967.38
2022-09-25T04:56:37.841Z,99966.78
2022-09-25T05:01:40.540Z,99982.03
2022-09-25T05:06:44.607Z,99983.31
2022-09-25T05:11:47.474Z,99970.00
2022-09-25T05:16:51.278Z,99965.88
2022-09-25T05:21:55.469Z,99971.22
2022-09-25T05:26:58.912Z,99971.50
2022-09-25T05:32:01.599Z,99969.81
2022-09-25T05:37:05.551Z,99973.47
2022-09-25T05:42:08.694Z,99969.19
2022-09-25T05:47:11.295Z,99971.16
2022-09-25T05:52:15.198Z,99987.28
2022-09-25T05:57:17.864Z,99989.25
2022-09-25T06:02:20.445Z,99991.34
2022-09-25T06:07:24.389Z,99983.16
2022-09-25T06:12:27.004Z,99974.50
2022-09-25T06:17:29.594Z,99969.25
2022-09-25T06:22:33.701Z,99970.97
2022-09-25T06:27:36.365Z,99973.78
2022-09-25T06:32:39.140Z,99976.31
2022-09-25T06:37:43.117Z,99980.84
2022-09-25T06:42:46.093Z,99979.13
2022-09-25T06:47:48.743Z,99976.47
2022-09-25T06:52:53.147Z,99987.06
2022-09-25T06:57:55.783Z,99991.56
2022-09-25T07:03:16.241Z,99983.78
2022-09-25T07:08:20.947Z,99982.69
2022-09-25T07:13:25.021Z,99977.16
2022-09-25T07:18:28.371Z,99979.84
2022-09-25T07:23:33.522Z,99975.34
2022-09-25T07:28:36.471Z,99963.31
2022-09-25T07:33:39.175Z,99974.53
2022-09-25T07:38:43.246Z,99969.88
2022-09-25T07:43:45.927Z,99981.91
2022-09-25T07:48:49.903Z,99985.00
2022-09-25T07:53:54.182Z,99982.34
2022-09-25T07:58:56.746Z,99983.50
2022-09-25T08:03:59.429Z,99973.97
2022-09-25T08:09:08.127Z,99978.34
2022-09-25T08:14:14.601Z,99969.19
2022-09-25T08:19:18.395Z,99971.25
2022-09-25T08:24:22.472Z,99975.00
2022-09-25T08:29:25.316Z,99973.66
2022-09-25T08:34:40.483Z,99965.09
2022-09-25T08:39:44.976Z,99962.88
2022-09-25T08:45:09.128Z,99958.84
2022-09-25T08:50:12.865Z,99961.38
2022-09-25T08:55:20.328Z,99963.69
2022-09-25T09:00:24.493Z,99960.88
2022-09-25T09:05:29.926Z,99958.06
2022-09-25T09:10:36.609Z,99960.47
2022-09-25T09:15:41.233Z,99961.06
2022-09-25T09:20:45.828Z,99961.81
2022-09-25T09:25:54.892Z,99957.16
2022-09-25T09:31:02.261Z,99958.72
2022-09-25T09:36:09.415Z,99954.22
2022-09-25T09:41:25.908Z,99955.66
2022-09-25T09:46:35.141Z,99966.28
2022-09-25T09:51:39.971Z,99961.75
2022-09-25T09:56:44.592Z,99962.34
2022-09-25T10:01:50.446Z,99948.91
2022-09-25T10:06:56.363Z,99953.91
2022-09-25T10:12:02.088Z,99941.91
2022-09-25T10:17:04.704Z,99939.22
2022-09-25T10:22:15.815Z,99932.63
2022-09-25T10:27:29.759Z,99927.72
2022-09-25T10:32:33.513Z,99920.50
2022-09-25T10:37:36.174Z,99910.75
2022-09-25T10:42:41.396Z,99905.50
2022-09-25T10:48:01.757Z,99902.56
2022-09-25T10:53:05.597Z,99890.16
2022-09-25T10:58:25.763Z,99892.47
2022-09-25T11:03:30.121Z,99886.41
2022-09-25T11:08:36.080Z,99881.72
2022-09-25T11:13:44.283Z,99874.91
2022-09-25T11:18:47.569Z,99887.91
2022-09-25T11:24:03.053Z,99886.91
2022-09-25T11:29:22.589Z,99882.19
2022-09-25T11:34:32.209Z,99863.59
2022-09-25T11:39:55.260Z,99871.91
2022-09-25T11:45:01.440Z,99865.97
2022-09-25T11:50:04.499Z,99870.50
2022-09-25T11:55:26.894Z,99862.53
2022-09-25T12:00:35.234Z,99859.56
2022-09-25T12:05:52.025Z,99859.94
2022-09-25T12:10:58.230Z,99857.88
2022-09-25T12:16:11.514Z,99848.44
2022-09-25T12:21:16.074Z,99856.91
2022-09-25T12:26:23.113Z,99847.94
2022-09-25T12:31:32.587Z,99839.88
2022-09-25T12:36:37.701Z,99843.13
2022-09-25T12:41:42.656Z,99830.81
2022-09-25T12:46:49.150Z,99818.59
2022-09-25T12:51:51.933Z,99819.06
2022-09-25T12:56:57.194Z,99819.06
2022-09-25T13:02:04.846Z,99808.03
2022-09-25T13:07:11.125Z,99798.31
2022-09-25T13:12:20.163Z,99796.91
2022-09-25T13:17:24.182Z,99800.16
2022-09-25T13:22:26.808Z,99790.94
2022-09-25T13:27:35.355Z,99786.56
2022-09-25T13:33:17.079Z,99786.53
2022-09-25T13:38:40.049Z,99777.44
2022-09-25T13:43:42.803Z,99768.81
2022-09-25T13:48:46.742Z,99767.47
2022-09-25T13:53:51.496Z,99766.22
2022-09-25T13:59:07.783Z,99759.94
2022-09-25T14:04:12.680Z,99764.09
2022-09-25T14:09:16.296Z,99767.41
2022-09-25T14:14:25.226Z,99764.09
2022-09-25T14:19:31.883Z,99765.09
2022-09-25T14:24:35.466Z,99756.31
2022-09-25T14:29:39.909Z,99749.94
2022-09-25T14:34:55.562Z,99743.88
2022-09-25T14:40:02.898Z,99744.88
2022-09-25T14:45:26.792Z,99741.03
2022-09-25T14:50:32.396Z,99740.06
2022-09-25T14:55:36.790Z,99741.81
2022-09-25T15:00:45.143Z,99724.94
2022-09-25T15:05:50.139Z,99721.34
2022-09-25T15:11:02.038Z,99719.44
2022-09-25T15:16:22.487Z,99718.47
2022-09-25T15:21:28.455Z,99717.94
2022-09-25T15:26:31.464Z,99721.72
2022-09-25T15:31:37.035Z,99719.91
2022-09-25T15:36:41.260Z,99720.06
2022-09-25T15:41:44.257Z,99719.81
2022-09-25T15:46:48.036Z,99721.69
2022-09-25T15:51:53.757Z,99719.13
2022-09-25T15:56:57.016Z,99726.19
2022-09-25T16:02:17.084Z,99721.13
2022-09-25T16:07:29.169Z,99729.50
2022-09-25T16:12:34.889Z,99727.09
2022-09-25T16:17:40.166Z,99714.22
2022-09-25T16:22:46.961Z,99727.81
2022-09-25T16:27:49.537Z,99730.06
2022-09-25T16:32:53.458Z,99722.72
2022-09-25T16:37:57.959Z,99720.78
2022-09-25T16:43:01.186Z,99722.31
2022-09-25T16:48:28.687Z,99721.31
2022-09-25T16:53:32.911Z,99730.91
2022-09-25T16:58:37.425Z,99737.59
2022-09-25T17:03:50.624Z,99733.31
2022-09-25T17:08:54.586Z,99732.75
2022-09-25T17:13:57.180Z,99729.50
2022-09-25T17:19:01.652Z,99723.16
2022-09-25T17:24:06.244Z,99714.63
2022-09-25T17:29:08.860Z,99726.28
2022-09-25T17:34:16.601Z,99722.59
2022-09-25T17:39:20.523Z,99733.47
2022-09-25T17:44:23.261Z,99734.75
2022-09-25T17:49:26.110Z,99734.91
2022-09-25T17:54:31.549Z,99743.25
2022-09-25T17:59:34.226Z,99742.28
2022-09-25T18:04:36.938Z,99746.53
2022-09-25T18:09:40.879Z,99741.00
2022-09-25T18:14:46.152Z,99739.59
2022-09-25T18:20:06.559Z,99743.84
2022-09-25T18:25:10.687Z,99747.06
2022-09-25T18:30:14.809Z,99745.50
2022-09-25T18:35:18.198Z,99741.81
2022-09-25T18:40:22.241Z,99746.78
2022-09-25T18:45:24.870Z,99738.56
2022-09-25T18:50:28.690Z,99738.13
2022-09-25T18:55:33.170Z,99735.16
2022-09-25T19:00:35.778Z,99731.19
2022-09-25T19:05:38.624Z,99738.09
2022-09-25T19:10:43.409Z,99736.84
2022-09-25T19:15:46.155Z,99732.31
2022-09-25T19:20:51.681Z,99728.47
2022-09-25T19:25:56.379Z,99735.13
2022-09-25T19:30:59.607Z,99728.91
2022-09-25T19:36:03.604Z,99730.13
2022-09-25T19:41:12.287Z,99728.13
2022-09-25T19:46:17.191Z,99732.41
2022-09-25T19:51:21.058Z,99728.88
2022-09-25T19:56:25.103Z,99728.41
2022-09-25T20:01:30.113Z,99730.94
2022-09-25T20:06:32.813Z,99733.38
2022-09-25T20:11:36.742Z,99740.47
2022-09-25T20:16:39.345Z,99742.00
2022-09-25T20:21:42.346Z,99739.31
2022-09-25T20:26:46.430Z,99740.03
2022-09-25T20:31:49.017Z,99740.88
2022-09-25T20:36:51.669Z,99737.88
2022-09-25T20:41:56.042Z,99733.78
2022-09-25T20:46:58.632Z,99734.06
2022-09-25T20:52:01.797Z,99727.66
2022-09-25T20:57:05.707Z,99746.22
2022-09-25T21:02:09.945Z,99752.44
2022-09-25T21:07:16.827Z,99753.59
2022-09-25T21:12:21.355Z,99751.28
2022-09-25T21:17:24.048Z,99734.44
2022-09-25T21:22:26.787Z,99743.94
2022-09-25T21:27:31.751Z,99744.78
2022-09-25T21:32:34.339Z,99741.09
2022-09-25T21:37:37.044Z,99733.16
2022-09-25T21:42:41.013Z,99724.78
2022-09-25T21:47:43.749Z,99725.31
2022-09-25T21:52:46.536Z,99721.09
2022-09-25T21:57:50.868Z,99718.25
2022-09-25T22:02:53.562Z,99728.00
2022-09-25T22:07:56.156Z,99725.63
2022-09-25T22:13:00.073Z,99730.47
2022-09-25T22:18:02.712Z,99715.44
2022-09-25T22:23:07.667Z,99721.28
2022-09-25T22:28:11.600Z,99713.63
2022-09-25T22:33:14.456Z,99704.31
2022-09-25T22:38:17.160Z,99709.72
2022-09-25T22:43:21.137Z,99700.94
2022-09-25T22:48:23.737Z,99681.09
2022-09-25T22:53:26.484Z,99678.69
2022-09-25T22:58:30.422Z,99669.91
2022-09-25T23:03:33.079Z,99671.88
2022-09-25T23:08:35.709Z,99664.25
2022-09-25T23:13:39.712Z,99667.19
2022-09-25T23:18:42.341Z,99656.56
2022-09-25T23:23:45.389Z,99662.38
2022-09-25T23:28:49.461Z,99662.38
2022-09-25T23:33:52.266Z,99657.84
2022-09-25T23:38:55.638Z,99654.84
2022-09-25T23:44:00.276Z,99649.63
2022-09-25T23:49:02.954Z,99652.16
2022-09-25T23:54:05.632Z,99650.63
2022-09-25T23:59:10.760Z,99639.56
